Time;durP1;ratioP1;P1;durP2;ratioP2;P2;SDS_P1;SDS_P2;PMS_P1;PMS_P2;Temp;Humidity;BMP_temperature;BMP_pressure;BME280_temperature;BME280_humidity;BME280_pressure;Samples;Min_cycle;Max_cycle;Signal;HPM_P1;HPM_P2
2021/07/18 00:01:41;;;;;;;4.72;2.33;;;;;;;26.50;54.89;102615.22;5030449;28;20095;-70
2021/07/18 00:04:07;;;;;;;4.18;2.47;;;;;;;26.50;54.79;102604.47;5031592;28;20069;-70
2021/07/18 00:06:32;;;;;;;4.70;2.65;;;;;;;26.49;54.76;102610.88;5030991;28;20049;-70
2021/07/18 00:08:58;;;;;;;5.25;2.60;;;;;;;26.48;54.74;102607.34;5031460;28;20045;-70
2021/07/18 00:11:23;;;;;;;4.30;2.45;;;;;;;26.49;54.67;102613.56;5031392;28;20140;-70
2021/07/18 00:13:48;;;;;;;3.60;2.40;;;;;;;26.49;55.07;102608.19;5030960;28;20030;-70
2021/07/18 00:16:14;;;;;;;5.00;2.35;;;;;;;26.50;54.71;102607.16;5031032;28;20092;-70
2021/07/18 00:18:40;;;;;;;3.33;2.25;;;;;;;26.50;54.63;102609.84;5031342;28;20133;-70
2021/07/18 00:21:05;;;;;;;5.40;2.55;;;;;;;26.50;54.72;102604.47;5030796;28;20034;-70
2021/07/18 00:23:30;;;;;;;4.45;3.00;;;;;;;26.50;54.59;102609.84;5029337;28;20517;-70
2021/07/18 00:25:56;;;;;;;4.65;2.60;;;;;;;26.50;54.60;102612.53;5030947;28;20050;-70
2021/07/18 00:28:21;;;;;;;4.50;2.80;;;;;;;26.51;54.53;102606.13;5030966;28;20029;-69
2021/07/18 00:30:47;;;;;;;4.10;2.50;;;;;;;26.50;54.20;102607.16;5030722;28;20449;-70
2021/07/18 00:33:12;;;;;;;4.30;2.83;;;;;;;26.50;54.20;102609.84;5031272;28;20471;-70
2021/07/18 00:35:38;;;;;;;3.88;2.55;;;;;;;26.48;54.08;102607.34;5030455;28;20044;-70
2021/07/18 00:38:04;;;;;;;5.60;2.95;;;;;;;26.50;54.16;102607.16;5028541;28;20478;-70
2021/07/18 00:40:30;;;;;;;5.45;2.85;;;;;;;26.49;53.97;102610.88;5030872;28;20041;-70
2021/07/18 00:42:55;;;;;;;4.18;2.55;;;;;;;26.48;53.94;102607.34;5030437;28;20044;-70
2021/07/18 00:45:21;;;;;;;3.85;2.45;;;;;;;26.49;53.75;102610.88;5030945;28;20376;-70
2021/07/18 00:47:47;;;;;;;5.75;2.50;;;;;;;26.49;53.82;102605.50;5030321;28;20021;-70
2021/07/18 00:50:14;;;;;;;4.85;2.45;;;;;;;26.49;53.58;102610.88;5030039;28;20402;-70
2021/07/18 00:52:40;;;;;;;4.45;2.78;;;;;;;26.49;53.61;102611.69;5029908;28;20059;-70
2021/07/18 00:55:08;;;;;;;4.72;2.30;;;;;;;26.49;53.47;102619.78;5030311;28;20091;-70
2021/07/18 00:57:36;;;;;;;4.45;2.53;;;;;;;26.49;53.64;102614.38;5029464;28;20053;-70
2021/07/18 01:00:05;;;;;;;6.15;2.45;;;;;;;26.48;53.44;102623.50;5030494;28;20039;-70
2021/07/18 01:02:31;;;;;;;3.80;2.30;;;;;;;26.49;53.39;102627.00;5029897;28;20034;-70
2021/07/18 01:04:58;;;;;;;4.22;2.40;;;;;;;26.48;53.26;102617.28;5030298;28;20083;-70
2021/07/18 01:07:23;;;;;;;3.88;2.25;;;;;;;26.49;53.36;102617.09;5029445;28;20029;-69
2021/07/18 01:09:49;;;;;;;4.43;2.60;;;;;;;26.48;53.46;102609.22;5030195;28;20034;-70
2021/07/18 01:12:16;;;;;;;4.30;2.20;;;;;;;26.48;53.26;102619.97;5030157;28;20034;-70
2021/07/18 01:14:42;;;;;;;3.35;2.15;;;;;;;26.49;53.06;102613.56;5028685;28;20121;-70
2021/07/18 01:17:07;;;;;;;4.75;2.83;;;;;;;26.49;53.25;102617.09;5028684;28;20084;-70
2021/07/18 01:19:34;;;;;;;3.72;2.22;;;;;;;26.48;53.03;102617.28;5028483;28;20021;-70
2021/07/18 01:22:02;;;;;;;4.22;2.35;;;;;;;26.49;53.07;102621.63;5028674;28;20041;-69
2021/07/18 01:24:30;;;;;;;3.85;2.00;;;;;;;26.49;53.10;102621.63;5029750;28;20459;-69
2021/07/18 01:26:56;;;;;;;5.25;2.25;;;;;;;26.49;53.00;102621.63;5029752;28;20048;-70
2021/07/18 01:29:23;;;;;;;3.70;2.15;;;;;;;26.50;53.01;102620.59;5027696;28;20088;-69
2021/07/18 01:31:49;;;;;;;3.05;1.73;;;;;;;26.50;53.01;102621.44;5030092;28;20029;-71
2021/07/18 01:34:15;;;;;;;3.97;2.03;;;;;;;26.50;53.13;102621.44;5029880;28;20443;-71
2021/07/18 01:36:41;;;;;;;4.25;2.40;;;;;;;26.50;52.98;102616.06;5030651;28;20129;-71
2021/07/18 01:39:10;;;;;;;4.18;2.10;;;;;;;26.50;53.21;102604.47;5030876;28;20518;-70
2021/07/18 01:41:36;;;;;;;2.97;2.10;;;;;;;26.51;53.21;102615.06;5026356;28;20029;-70
2021/07/18 01:44:02;;;;;;;5.38;2.03;;;;;;;26.52;53.08;102603.25;5029466;28;20083;-70
2021/07/18 01:46:29;;;;;;;3.03;1.83;;;;;;;26.52;53.23;102592.50;5028300;28;20394;-69
2021/07/18 01:48:55;;;;;;;3.13;1.88;;;;;;;26.52;53.00;102597.88;5033281;28;20052;-70
2021/07/18 01:51:26;;;;;;;4.10;2.25;;;;;;;26.51;53.11;102596.22;5035234;28;20029;-70
2021/07/18 01:53:52;;;;;;;3.80;2.10;;;;;;;26.53;53.04;102593.31;5029593;28;20048;-69
2021/07/18 01:56:19;;;;;;;3.00;1.92;;;;;;;26.54;53.29;102592.28;5029121;28;20433;-69
2021/07/18 01:58:47;;;;;;;2.88;1.88;;;;;;;26.54;53.17;102590.41;5029430;28;20045;-70
2021/07/18 02:01:12;;;;;;;3.33;1.90;;;;;;;26.53;53.13;102583.38;5027608;28;20429;-70
2021/07/18 02:03:38;;;;;;;3.03;1.83;;;;;;;26.54;53.08;102589.59;5029551;28;20034;-70
2021/07/18 02:06:04;;;;;;;3.22;2.08;;;;;;;26.54;53.19;102586.91;5033442;28;20040;-70
2021/07/18 02:08:29;;;;;;;3.58;2.15;;;;;;;26.54;53.12;102590.41;5035946;28;20042;-70
2021/07/18 02:10:55;;;;;;;3.97;2.10;;;;;;;26.54;53.18;102578.81;5029821;28;20099;-72
2021/07/18 02:13:20;;;;;;;3.85;2.05;;;;;;;26.54;53.19;102574.28;5028873;28;20036;-70
2021/07/18 02:15:47;;;;;;;3.78;1.88;;;;;;;26.55;53.17;102580.47;5029689;28;20029;-70
2021/07/18 02:18:12;;;;;;;3.92;1.95;;;;;;;26.56;53.26;102574.06;5028715;28;20049;-69
2021/07/18 02:20:38;;;;;;;2.70;1.70;;;;;;;26.55;53.27;102570.53;5028722;28;20026;-70
2021/07/18 02:23:04;;;;;;;3.72;2.22;;;;;;;26.56;53.08;102563.31;5027841;28;20136;-69
2021/07/18 02:25:30;;;;;;;8.65;2.30;;;;;;;26.55;53.13;102562.47;5028886;28;20541;-70
2021/07/18 02:27:56;;;;;;;2.85;1.98;;;;;;;26.56;53.11;102560.59;5044314;28;20045;-70
2021/07/18 02:30:23;;;;;;;3.70;2.03;;;;;;;26.56;53.13;102566.00;5026980;28;20371;-70
2021/07/18 02:32:51;;;;;;;3.53;2.03;;;;;;;26.56;53.65;102561.44;5027624;28;20396;-70
2021/07/18 02:35:17;;;;;;;3.10;2.30;;;;;;;26.57;53.24;102559.56;5028264;28;20037;-71
2021/07/18 02:37:44;;;;;;;3.67;2.20;;;;;;;26.56;53.25;102553.38;5028027;28;20037;-70
2021/07/18 02:40:10;;;;;;;3.72;2.20;;;;;;;26.58;53.33;102557.72;5032297;28;20479;-70
2021/07/18 02:42:37;;;;;;;2.92;1.90;;;;;;;26.57;53.38;102554.19;5036798;28;20051;-70
2021/07/18 02:45:05;;;;;;;3.40;2.20;;;;;;;26.57;53.18;102551.50;5029802;28;20068;-70
2021/07/18 02:47:30;;;;;;;5.18;2.10;;;;;;;26.57;53.40;102548.81;5028571;28;20163;-70
2021/07/18 02:49:56;;;;;;;2.55;1.92;;;;;;;26.58;53.32;102544.25;5029091;28;20155;-70
2021/07/18 02:52:21;;;;;;;3.15;1.92;;;;;;;26.59;53.51;102551.28;5026012;28;20038;-70
2021/07/18 02:54:47;;;;;;;3.17;2.10;;;;;;;26.58;53.58;102550.47;5028976;28;20034;-70
2021/07/18 02:57:12;;;;;;;5.53;2.25;;;;;;;26.59;53.50;102554.81;5028038;28;20441;-70
2021/07/18 02:59:38;;;;;;;2.90;1.83;;;;;;;26.59;53.52;102543.22;5028378;28;20026;-70
2021/07/18 03:02:03;;;;;;;2.80;2.00;;;;;;;26.60;53.59;102545.72;5027050;28;20467;-70
2021/07/18 03:04:30;;;;;;;3.38;2.22;;;;;;;26.60;53.53;102548.41;5028646;28;20044;-70
2021/07/18 03:06:57;;;;;;;4.95;2.17;;;;;;;26.59;53.80;102544.06;5026821;28;20041;-70
2021/07/18 03:09:23;;;;;;;4.78;2.30;;;;;;;26.59;53.58;102538.66;5028349;28;20064;-70
2021/07/18 03:11:53;;;;;;;4.68;2.53;;;;;;;26.59;53.65;102543.22;5026859;28;20021;-70
2021/07/18 03:14:19;;;;;;;2.95;2.00;;;;;;;26.60;53.65;102544.88;5028658;28;20060;-70
2021/07/18 03:16:47;;;;;;;3.38;2.00;;;;;;;26.60;53.89;102547.56;5028650;28;20069;-70
2021/07/18 03:19:15;;;;;;;3.15;2.28;;;;;;;26.60;53.72;102539.50;5028417;28;20498;-70
2021/07/18 03:21:41;;;;;;;3.67;2.20;;;;;;;26.61;53.60;102541.16;5028896;28;20113;-70
2021/07/18 03:24:06;;;;;;;4.35;2.03;;;;;;;26.61;53.87;102541.16;5032158;28;20774;-70
2021/07/18 03:26:32;;;;;;;4.15;2.40;;;;;;;26.60;53.96;102539.50;5031986;28;20713;-69
2021/07/18 03:28:58;;;;;;;4.13;2.25;;;;;;;26.59;53.92;102533.28;5031763;28;20099;-70
2021/07/18 03:31:24;;;;;;;3.80;2.15;;;;;;;26.61;53.90;102541.97;5031405;28;20081;-70
2021/07/18 03:33:50;;;;;;;3.33;2.38;;;;;;;26.60;53.92;102539.50;5032308;28;20061;-70
2021/07/18 03:36:15;;;;;;;4.00;2.10;;;;;;;26.61;53.95;102539.28;5031423;28;20037;-71
2021/07/18 03:38:41;;;;;;;4.00;2.30;;;;;;;26.60;54.06;102537.63;5035598;28;20124;-70
2021/07/18 03:41:06;;;;;;;3.75;1.90;;;;;;;26.60;54.06;102534.13;5040418;28;20049;-71
2021/07/18 03:43:32;;;;;;;3.80;2.20;;;;;;;26.59;53.93;102532.44;5041379;28;20025;-70
2021/07/18 03:45:57;;;;;;;2.33;1.70;;;;;;;26.59;54.08;102538.66;5031536;28;20041;-70
2021/07/18 03:48:23;;;;;;;3.22;2.20;;;;;;;26.59;54.08;102527.91;5031898;28;20033;-70
2021/07/18 03:50:49;;;;;;;4.20;2.10;;;;;;;26.60;54.17;102528.72;5029990;28;20443;-70
2021/07/18 03:53:16;;;;;;;3.60;2.13;;;;;;;26.61;54.12;102535.78;5046040;28;20039;-70
2021/07/18 03:55:41;;;;;;;2.45;1.70;;;;;;;26.60;54.15;102531.41;5031117;28;20041;-70
2021/07/18 03:58:06;;;;;;;3.40;2.20;;;;;;;26.60;54.10;102534.94;5031226;28;20034;-71
2021/07/18 04:00:32;;;;;;;4.65;2.17;;;;;;;26.60;54.01;102532.25;5031999;28;20048;-70
2021/07/18 04:02:58;;;;;;;3.20;2.15;;;;;;;26.60;54.03;102534.13;5031627;28;20113;-70
2021/07/18 04:05:23;;;;;;;3.10;2.10;;;;;;;26.59;54.06;102533.28;5030207;28;20041;-70
2021/07/18 04:07:49;;;;;;;3.58;2.40;;;;;;;26.61;54.14;102536.59;5030309;28;20467;-70
2021/07/18 04:10:14;;;;;;;3.67;2.10;;;;;;;26.59;54.01;102533.28;5031370;28;20075;-70
2021/07/18 04:12:40;;;;;;;3.90;2.15;;;;;;;26.60;53.99;102534.13;5029929;28;20044;-70
2021/07/18 04:15:07;;;;;;;3.08;1.92;;;;;;;26.60;54.00;102539.50;5031854;28;20041;-70
2021/07/18 04:17:32;;;;;;;4.13;2.10;;;;;;;26.61;54.14;102541.97;5031003;28;20034;-70
2021/07/18 04:19:58;;;;;;;3.67;2.22;;;;;;;26.60;54.04;102540.31;5031242;28;20446;-70
2021/07/18 04:22:23;;;;;;;4.97;2.22;;;;;;;26.61;53.93;102546.53;5029058;28;20088;-70
2021/07/18 04:24:49;;;;;;;2.47;1.80;;;;;;;26.60;53.99;102545.72;5031089;28;20085;-70
2021/07/18 04:27:14;;;;;;;2.72;1.80;;;;;;;26.61;54.23;102541.97;5030919;28;20091;-70
2021/07/18 04:29:40;;;;;;;4.80;2.50;;;;;;;26.60;54.15;102540.31;5031170;28;20044;-70
2021/07/18 04:32:06;;;;;;;3.70;2.28;;;;;;;26.61;53.98;102533.06;5031038;28;20041;-70
2021/07/18 04:34:31;;;;;;;4.28;2.55;;;;;;;26.60;54.14;102536.81;5030794;28;20188;-70
2021/07/18 04:36:58;;;;;;;4.43;2.30;;;;;;;26.61;54.17;102536.59;5028647;28;20079;-70
2021/07/18 04:39:24;;;;;;;3.47;2.10;;;;;;;26.61;54.19;102528.53;5036806;28;20033;-70
2021/07/18 04:41:49;;;;;;;3.92;2.30;;;;;;;26.61;54.07;102536.59;5041870;28;20469;-70
2021/07/18 04:44:15;;;;;;;3.67;2.22;;;;;;;26.61;53.91;102533.06;5038489;28;20042;-70
2021/07/18 04:46:40;;;;;;;3.60;2.42;;;;;;;26.61;54.08;102536.59;5030895;28;20041;-70
2021/07/18 04:49:05;;;;;;;3.25;2.20;;;;;;;26.59;54.16;102538.66;5030686;28;20033;-71
2021/07/18 04:51:31;;;;;;;3.58;1.70;;;;;;;26.61;54.07;102541.16;5029943;28;20043;-71
2021/07/18 04:53:56;;;;;;;4.10;2.10;;;;;;;26.61;54.16;102541.16;5031508;28;20034;-70
2021/07/18 04:56:22;;;;;;;3.47;1.85;;;;;;;26.60;54.15;102537.63;5035507;28;20037;-70
2021/07/18 04:58:47;;;;;;;4.22;2.42;;;;;;;26.61;54.10;102541.16;5034025;28;20028;-70
2021/07/18 05:01:13;;;;;;;3.20;2.10;;;;;;;26.61;54.03;102543.84;5036480;28;20029;-70
2021/07/18 05:03:38;;;;;;;3.47;1.80;;;;;;;26.59;53.92;102549.44;5033601;28;20624;-70
2021/07/18 05:06:05;;;;;;;3.90;1.92;;;;;;;26.59;53.74;102552.13;5034977;28;20047;-71
2021/07/18 05:08:33;;;;;;;2.60;1.50;;;;;;;26.59;53.99;102549.44;5023264;28;20034;-70
2021/07/18 05:10:59;;;;;;;3.53;1.73;;;;;;;26.59;53.91;102549.44;5034910;28;20471;-70
2021/07/18 05:13:24;;;;;;;3.80;1.85;;;;;;;26.59;53.87;102554.00;5035025;28;20037;-70
2021/07/18 05:15:50;;;;;;;4.07;1.60;;;;;;;26.59;53.83;102554.00;5033809;28;20070;-71
2021/07/18 05:18:15;;;;;;;3.15;1.40;;;;;;;26.58;53.94;102558.53;5036073;28;20029;-70
2021/07/18 05:20:41;;;;;;;2.80;1.50;;;;;;;26.58;53.76;102555.84;5033394;28;20034;-70
2021/07/18 05:23:07;;;;;;;2.15;1.30;;;;;;;26.58;53.87;102557.72;5035680;28;20139;-72
2021/07/18 05:25:33;;;;;;;2.72;1.38;;;;;;;26.58;53.69;102557.72;5033330;28;20077;-70
2021/07/18 05:27:58;;;;;;;3.00;1.45;;;;;;;26.56;53.66;102555.22;5033746;28;20041;-70
2021/07/18 05:30:24;;;;;;;3.75;1.50;;;;;;;26.56;53.55;102555.22;5034749;28;20164;-70
2021/07/18 05:32:49;;;;;;;2.63;1.30;;;;;;;26.56;53.63;102566.00;5032460;28;20060;-70
2021/07/18 05:35:15;;;;;;;2.33;1.27;;;;;;;26.56;53.66;102566.00;5036849;28;20484;-71
2021/07/18 05:37:40;;;;;;;3.33;1.30;;;;;;;26.57;53.71;102567.66;5032370;28;20445;-70
2021/07/18 05:40:08;;;;;;;2.75;1.30;;;;;;;26.57;53.80;102564.97;5040785;28;20041;-70
2021/07/18 05:42:34;;;;;;;2.67;1.27;;;;;;;26.57;53.68;102570.34;5040536;28;20067;-70
2021/07/18 05:44:59;;;;;;;2.25;1.30;;;;;;;26.58;53.55;102572.00;5033342;28;20034;-71
2021/07/18 05:47:25;;;;;;;2.58;1.30;;;;;;;26.56;53.47;102564.13;5029096;28;20131;-70
2021/07/18 05:49:52;;;;;;;3.08;1.27;;;;;;;26.55;53.60;102565.16;5028646;28;20824;-70
2021/07/18 05:52:17;;;;;;;2.75;1.30;;;;;;;26.56;53.41;102571.38;5028494;28;20068;-70
2021/07/18 05:54:43;;;;;;;3.25;1.30;;;;;;;26.56;53.37;102580.28;5029496;28;20026;-70
2021/07/18 05:57:08;;;;;;;2.90;1.50;;;;;;;26.56;53.58;102576.75;5029362;28;20103;-70
2021/07/18 05:59:34;;;;;;;2.20;1.25;;;;;;;26.56;53.42;102584.84;5029168;28;20044;-70
2021/07/18 06:02:00;;;;;;;3.65;1.45;;;;;;;26.57;53.31;102586.50;5029626;28;20146;-70
2021/07/18 06:04:27;;;;;;;3.85;1.50;;;;;;;26.55;53.35;102589.38;5029040;28;20079;-70
2021/07/18 06:06:53;;;;;;;2.63;1.40;;;;;;;26.54;53.25;102585.03;5028953;28;20036;-70
2021/07/18 06:09:18;;;;;;;2.05;1.25;;;;;;;26.53;53.25;102588.75;5027756;28;20042;-70
2021/07/18 06:11:44;;;;;;;4.05;1.85;;;;;;;26.53;53.23;102587.94;5029240;28;20087;-70
2021/07/18 06:14:09;;;;;;;2.28;1.42;;;;;;;26.52;53.17;102583.59;5029605;28;20091;-71
2021/07/18 06:16:35;;;;;;;2.53;1.40;;;;;;;26.52;53.26;102587.09;5028939;28;20102;-70
2021/07/18 06:19:00;;;;;;;2.90;1.60;;;;;;;26.51;53.27;102587.28;5029712;28;20068;-70
2021/07/18 06:21:25;;;;;;;4.38;1.50;;;;;;;26.51;53.29;102589.97;5028549;28;20038;-70
2021/07/18 06:23:51;;;;;;;3.72;1.88;;;;;;;26.51;53.22;102587.28;5028916;28;20034;-70
2021/07/18 06:26:16;;;;;;;2.58;1.33;;;;;;;26.51;53.42;102589.97;5044058;28;20124;-70
2021/07/18 06:28:43;;;;;;;2.42;1.65;;;;;;;26.51;53.38;102584.59;5028926;28;20056;-70
2021/07/18 06:31:08;;;;;;;2.70;1.40;;;;;;;26.50;53.30;102585.63;5028974;28;20129;-70
2021/07/18 06:33:34;;;;;;;3.42;1.48;;;;;;;26.50;53.33;102580.22;5028614;28;20190;-70
2021/07/18 06:36:00;;;;;;;2.38;1.38;;;;;;;26.50;53.20;102577.53;5028693;28;20127;-70
2021/07/18 06:38:25;;;;;;;2.35;1.30;;;;;;;26.49;53.13;102592.03;5030411;28;20782;-70
2021/07/18 06:40:51;;;;;;;2.03;1.30;;;;;;;26.49;53.09;102589.34;5039696;28;20033;-70
2021/07/18 06:43:16;;;;;;;3.03;1.40;;;;;;;26.49;53.18;102589.34;5037702;28;20048;-70
2021/07/18 06:45:42;;;;;;;2.95;1.30;;;;;;;26.49;53.03;102586.66;5031137;28;20536;-70
2021/07/18 06:48:07;;;;;;;4.40;1.45;;;;;;;26.47;53.22;102591.41;5029027;28;20044;-70
2021/07/18 06:50:33;;;;;;;2.60;1.52;;;;;;;26.46;53.23;102582.50;5028202;28;20356;-70
2021/07/18 06:52:59;;;;;;;3.10;1.60;;;;;;;26.47;53.22;102589.53;5028251;28;20025;-70
2021/07/18 06:55:24;;;;;;;2.60;1.35;;;;;;;26.47;53.30;102588.72;5029054;28;20041;-70
2021/07/18 06:57:51;;;;;;;3.90;1.52;;;;;;;26.47;53.17;102586.03;5032367;28;20455;-70
2021/07/18 07:00:18;;;;;;;3.15;1.50;;;;;;;26.46;53.26;102587.88;5031913;28;20110;-70
2021/07/18 07:02:44;;;;;;;2.97;1.23;;;;;;;26.48;53.19;102585.00;5034107;28;20115;-70
2021/07/18 07:05:11;;;;;;;2.10;1.20;;;;;;;26.47;53.33;102583.34;5032819;28;20033;-70
2021/07/18 07:07:37;;;;;;;2.08;1.10;;;;;;;26.47;53.05;102589.53;5031850;28;20040;-70
2021/07/18 07:10:04;;;;;;;2.92;1.23;;;;;;;26.48;53.32;102585.00;5034790;28;20410;-70
2021/07/18 07:12:30;;;;;;;2.47;1.60;;;;;;;26.49;52.99;102592.03;5045290;28;20040;-69
2021/07/18 07:14:56;;;;;;;2.80;1.20;;;;;;;26.50;53.29;102593.69;5051494;28;20386;-68
2021/07/18 07:17:21;;;;;;;4.93;1.25;;;;;;;26.49;53.33;102592.03;5043283;28;20079;-68
2021/07/18 07:19:46;;;;;;;5.38;1.55;;;;;;;26.49;53.39;102600.09;5045690;28;20466;-67
2021/07/18 07:22:12;;;;;;;3.55;1.88;;;;;;;26.48;53.36;102598.44;5046506;28;20094;-67
2021/07/18 07:24:37;;;;;;;2.33;1.50;;;;;;;26.48;53.37;102599.28;5043106;28;20029;-67
2021/07/18 07:27:04;;;;;;;4.18;1.95;;;;;;;26.49;53.30;102586.66;5047902;28;20386;-67
2021/07/18 07:29:29;;;;;;;4.13;1.60;;;;;;;26.48;53.74;102596.59;5043279;28;20033;-71
2021/07/18 07:31:55;;;;;;;4.57;2.13;;;;;;;26.48;53.80;102593.06;5047823;28;20071;-70
2021/07/18 07:34:20;;;;;;;6.20;2.60;;;;;;;26.48;53.35;102599.28;5045514;28;20044;-67
2021/07/18 07:36:46;;;;;;;4.70;2.53;;;;;;;26.46;53.62;102603.19;5044867;28;20128;-70
2021/07/18 07:39:12;;;;;;;7.68;2.88;;;;;;;26.45;53.76;102598.84;5042627;28;20441;-71
2021/07/18 07:41:37;;;;;;;5.25;2.67;;;;;;;26.44;53.93;102595.34;5040525;28;20030;-70
2021/07/18 07:44:03;;;;;;;7.78;2.92;;;;;;;26.44;53.90;102594.50;5040647;28;20497;-71
2021/07/18 07:46:29;;;;;;;5.22;2.72;;;;;;;26.44;53.91;102595.34;5030927;28;20082;-70
2021/07/18 07:48:54;;;;;;;7.88;3.17;;;;;;;26.44;54.05;102598.03;5031276;28;20065;-70
2021/07/18 07:51:20;;;;;;;4.70;2.92;;;;;;;26.44;53.90;102605.25;5031741;28;20389;-71
2021/07/18 07:53:46;;;;;;;4.68;2.72;;;;;;;26.44;54.28;102598.03;5031019;28;20060;-71
2021/07/18 07:56:11;;;;;;;7.90;3.45;;;;;;;26.45;54.22;102602.38;5031618;28;20047;-72
2021/07/18 07:58:37;;;;;;;5.28;2.92;;;;;;;26.45;54.56;102601.53;5031687;28;20037;-70
2021/07/18 08:01:03;;;;;;;8.05;3.45;;;;;;;26.46;54.41;102603.19;5031594;28;20106;-73
2021/07/18 08:03:29;;;;;;;10.88;4.13;;;;;;;26.45;54.46;102597.00;5031709;28;20030;-72
2021/07/18 08:05:54;;;;;;;7.63;3.60;;;;;;;26.45;54.26;102593.47;5030716;28;20044;-72
2021/07/18 08:08:20;;;;;;;7.20;3.67;;;;;;;26.45;54.56;102593.47;5031240;28;20071;-70
2021/07/18 08:10:45;;;;;;;10.98;4.32;;;;;;;26.44;54.42;102594.50;5031627;28;20033;-72
2021/07/18 08:13:11;;;;;;;9.75;4.72;;;;;;;26.44;54.32;102591.81;5031143;28;20095;-72
2021/07/18 08:15:36;;;;;;;9.82;4.63;;;;;;;26.45;54.25;102598.84;5031804;28;20066;-75
2021/07/18 08:18:03;;;;;;;9.25;4.10;;;;;;;26.45;54.19;102593.47;5031867;28;20226;-70
2021/07/18 08:20:28;;;;;;;12.75;4.18;;;;;;;26.45;54.62;102588.91;5033110;28;20064;-71
2021/07/18 08:22:55;;;;;;;6.82;3.92;;;;;;;26.45;54.33;102586.22;5033386;28;20589;-70
2021/07/18 08:25:22;;;;;;;5.72;3.22;;;;;;;26.45;54.21;102578.16;5032730;28;20076;-68
2021/07/18 08:27:49;;;;;;;8.77;3.75;;;;;;;26.46;54.29;102579.81;5044604;28;20119;-68
2021/07/18 08:30:15;;;;;;;9.18;3.60;;;;;;;26.47;54.32;102581.47;5031681;28;20034;-69
2021/07/18 08:32:41;;;;;;;8.77;3.38;;;;;;;26.48;54.52;102579.59;5031497;28;20041;-70
2021/07/18 08:35:08;;;;;;;7.88;3.47;;;;;;;26.48;54.59;102579.59;5032687;28;20037;-70
2021/07/18 08:37:34;;;;;;;11.85;4.25;;;;;;;26.48;54.54;102577.75;5029372;28;20045;-68
2021/07/18 08:40:00;;;;;;;14.13;4.05;;;;;;;26.49;54.56;102576.72;5035399;28;20061;-67
2021/07/18 08:42:27;;;;;;;14.18;4.70;;;;;;;26.50;54.79;102574.84;5038561;28;20109;-68
2021/07/18 08:44:56;;;;;;;13.82;5.57;;;;;;;26.51;54.66;102573.81;5033151;28;20034;-69
2021/07/18 08:47:22;;;;;;;15.55;5.35;;;;;;;26.51;54.66;102565.75;5037047;28;20541;-67
2021/07/18 08:49:48;;;;;;;16.02;5.50;;;;;;;26.52;54.61;102564.75;5033890;28;20124;-67
2021/07/18 08:52:13;;;;;;;12.38;5.68;;;;;;;26.51;55.14;102565.75;5034478;28;20670;-67
2021/07/18 08:54:39;;;;;;;11.55;5.07;;;;;;;26.52;54.88;102560.19;5035970;28;20034;-71
2021/07/18 08:57:05;;;;;;;15.10;5.45;;;;;;;26.52;55.04;102553.97;5033653;28;20445;-67
2021/07/18 08:59:31;;;;;;;13.77;4.75;;;;;;;26.51;55.13;102563.06;5036726;28;20040;-67
2021/07/18 09:01:58;;;;;;;17.40;5.63;;;;;;;26.51;55.02;102558.53;5033787;28;20041;-68
2021/07/18 09:04:23;;;;;;;15.73;5.03;;;;;;;26.50;55.20;102564.91;5037122;28;20029;-68
2021/07/18 09:06:51;;;;;;;14.30;4.57;;;;;;;26.49;54.90;102560.56;5032614;28;20026;-68
2021/07/18 09:09:22;;;;;;;10.52;4.55;;;;;;;26.47;54.80;102553.72;5034879;28;20041;-68
2021/07/18 09:11:56;;;;;;;12.93;4.22;;;;;;;26.45;54.69;102564.69;5031260;28;20087;-67
2021/07/18 09:14:22;;;;;;;11.77;4.27;;;;;;;26.46;54.35;102555.59;5033427;28;20033;-67
2021/07/18 09:16:49;;;;;;;8.02;3.78;;;;;;;26.46;54.42;102550.22;5032851;28;20736;-67
2021/07/18 09:19:35;;;;;;;17.00;4.13;;;;;;;26.43;54.36;102544.41;5031006;28;20038;-67
2021/07/18 09:22:03;;;;;;;19.20;4.63;;;;;;;26.44;54.32;102541.50;5029707;28;20033;-67
2021/07/18 09:24:34;;;;;;;11.40;4.57;;;;;;;26.43;54.08;102539.84;5032376;28;20056;-67
2021/07/18 09:27:02;;;;;;;10.00;4.35;;;;;;;26.44;54.03;102538.00;5033777;28;20025;-67
2021/07/18 09:29:28;;;;;;;10.52;3.95;;;;;;;26.44;54.00;102535.28;5033510;28;20036;-67
2021/07/18 09:32:08;;;;;;;9.80;4.35;;;;;;;26.41;53.81;102535.72;5035855;28;20037;-67
2021/07/18 09:34:35;;;;;;;10.98;3.75;;;;;;;26.41;53.73;102546.47;5033811;28;20033;-68
2021/07/18 09:37:25;;;;;;;10.35;3.75;;;;;;;26.38;53.46;102541.50;5030614;28;20094;-68
2021/07/18 09:40:06;;;;;;;6.93;3.28;;;;;;;26.34;53.47;102534.81;5032832;28;20069;-67
2021/07/18 09:42:44;;;;;;;5.80;2.88;;;;;;;26.36;53.26;102539.00;5040646;28;20037;-67
2021/07/18 09:45:12;;;;;;;5.80;3.00;;;;;;;26.34;53.05;102532.94;5033792;28;20032;-68
2021/07/18 09:48:02;;;;;;;4.63;2.80;;;;;;;26.30;53.22;102544.31;5029590;28;20453;-68
2021/07/18 09:50:35;;;;;;;5.25;2.83;;;;;;;26.33;53.16;102538.53;5020014;28;20146;-67
2021/07/18 09:53:08;;;;;;;5.05;2.40;;;;;;;26.31;53.09;102533.34;5028474;28;20088;-67
2021/07/18 09:55:34;;;;;;;5.20;2.70;;;;;;;26.33;52.93;102533.13;5029185;28;20068;-67
2021/07/18 09:58:00;;;;;;;6.97;2.70;;;;;;;26.31;53.08;102533.34;5029292;28;20033;-67
2021/07/18 10:00:42;;;;;;;6.57;2.42;;;;;;;26.28;52.96;102537.28;5030056;28;20036;-67
2021/07/18 10:03:21;;;;;;;5.30;2.97;;;;;;;26.30;52.92;102537.06;5016587;28;20025;-68
2021/07/18 10:06:06;;;;;;;5.43;2.38;;;;;;;26.33;52.76;102538.53;5027806;28;20101;-68
2021/07/18 10:08:31;;;;;;;;;;;;;;;26.21;53.06;102536.41;5029523;28;20033;-68
2021/07/18 10:10:57;;;;;;;4.47;2.22;;;;;;;26.31;52.92;102551.34;5028575;28;19917;-68
2021/07/18 10:13:22;;;;;;;4.03;2.33;;;;;;;26.31;52.98;102543.28;5029135;28;20029;-68
2021/07/18 10:15:48;;;;;;;4.65;2.50;;;;;;;26.32;53.01;102542.25;5028973;28;20052;-68
2021/07/18 10:18:13;;;;;;;5.50;2.47;;;;;;;26.31;52.88;102537.91;5028996;28;20025;-68
2021/07/18 10:20:41;;;;;;;5.25;2.40;;;;;;;26.31;52.70;102541.41;5029215;28;20411;-68
2021/07/18 10:23:08;;;;;;;4.72;2.22;;;;;;;26.31;52.59;102540.59;5027853;28;20485;-68
2021/07/18 10:25:34;;;;;;;5.13;2.17;;;;;;;26.31;52.60;102545.97;5029099;28;20046;-68
2021/07/18 10:28:00;;;;;;;6.32;2.53;;;;;;;26.30;52.71;102529.00;5027974;28;20045;-68
2021/07/18 10:30:30;;;;;;;5.32;2.25;;;;;;;26.31;52.79;102537.91;5029263;28;20040;-68
2021/07/18 10:32:56;;;;;;;5.85;2.00;;;;;;;26.32;52.80;102539.56;5028714;28;20037;-68
2021/07/18 10:35:22;;;;;;;4.47;2.13;;;;;;;26.32;52.85;102529.63;5027502;28;20087;-67
2021/07/18 10:37:48;;;;;;;3.50;2.00;;;;;;;26.33;52.92;102528.59;5028311;28;20033;-67
2021/07/18 10:40:18;;;;;;;5.85;2.08;;;;;;;26.33;52.80;102531.28;5040214;28;20347;-68
2021/07/18 10:42:44;;;;;;;3.65;2.08;;;;;;;26.33;52.97;102525.91;5038197;28;20029;-68
2021/07/18 10:45:20;;;;;;;5.63;2.03;;;;;;;26.32;52.99;102529.63;5032629;28;20628;-68
2021/07/18 10:48:01;;;;;;;4.80;1.88;;;;;;;26.32;52.93;102524.25;5015259;28;20123;-68
2021/07/18 10:50:47;;;;;;;4.82;2.20;;;;;;;26.32;53.29;102529.63;5028370;28;20033;-68
2021/07/18 10:53:38;;;;;;;4.55;2.10;;;;;;;26.32;53.16;102520.72;5028014;28;20033;-68
2021/07/18 10:56:05;;;;;;;6.07;2.30;;;;;;;26.36;53.25;102522.88;5025031;28;20064;-67
2021/07/18 10:58:40;;;;;;;5.18;2.25;;;;;;;26.34;53.14;102515.97;5028826;28;20048;-68
2021/07/18 11:01:11;;;;;;;3.60;1.95;;;;;;;26.35;53.25;102510.41;5027779;28;20040;-67
2021/07/18 11:03:39;;;;;;;6.22;2.30;;;;;;;26.38;52.87;102520.81;5028790;28;20037;-68
2021/07/18 11:06:30;;;;;;;6.80;2.65;;;;;;;26.34;53.00;102510.59;5027570;28;20029;-70
2021/07/18 11:09:18;;;;;;;3.85;2.28;;;;;;;26.33;53.44;102507.06;5028000;28;20518;-68
2021/07/18 11:11:48;;;;;;;4.05;2.45;;;;;;;26.37;53.25;102503.00;5016288;28;20018;-68
2021/07/18 11:14:28;;;;;;;6.40;2.90;;;;;;;26.37;53.05;102504.84;5027816;28;20029;-68
2021/07/18 11:16:56;;;;;;;7.18;3.28;;;;;;;26.37;53.23;102502.16;5028618;28;20033;-68
2021/07/18 11:19:39;;;;;;;7.78;3.30;;;;;;;26.34;53.18;102506.03;5028369;28;20616;-68
2021/07/18 11:22:06;;;;;;;5.40;2.85;;;;;;;26.37;53.24;102504.84;5027619;28;20040;-68
2021/07/18 11:24:55;;;;;;;6.22;2.97;;;;;;;26.32;53.38;102497.34;5028419;28;20048;-67